Terminal Aerodrome Forecast
Issued by NWS Goodland, KS

Home | Current Version | Previous Version | Text Only | Print | Product List | Glossary On
Versions: 1 2 3 4 5 6 7 8 9 10 11 12 13 14 15 16 17 18 19 20 21 22 23 24 25
000
FTUS43 KGLD 200029 AAA
TAFGLD
TAF AMD
KGLD 200029Z 2000/2024 36016G24KT 3SM -SHRA BR OVC015
     FM200200 35013KT P6SM OVC015
     FM201000 35013KT 6SM BR BKN015
     FM201500 36009KT P6SM BKN025
     FM202000 07006KT P6SM FEW035 SCT060=

USA.gov is the U.S. government's official web portal to all federal, state and local government web resources and services.